sensor_id;sensor_type;location;lat;lon;timestamp;P1;durP1;ratioP1;P2;durP2;ratioP2
48241;SDS011;34041;51.812;4.622;2023-07-13T18:50:59;2.10;;;1.15;;
48241;SDS011;34041;51.812;4.622;2023-07-13T18:54:00;2.95;;;1.20;;
48241;SDS011;34041;51.812;4.622;2023-07-13T18:57:01;4.60;;;1.23;;
48241;SDS011;34041;51.812;4.622;2023-07-13T19:00:01;2.28;;;1.15;;
48241;SDS011;34041;51.812;4.622;2023-07-13T19:03:03;3.17;;;1.50;;
48241;SDS011;34041;51.812;4.622;2023-07-13T19:06:05;6.80;;;1.33;;
48241;SDS011;34041;51.812;4.622;2023-07-13T19:09:08;4.65;;;1.30;;
48241;SDS011;34041;51.812;4.622;2023-07-13T19:12:19;3.38;;;1.10;;
48241;SDS011;34041;51.812;4.622;2023-07-13T19:15:21;4.45;;;1.38;;
48241;SDS011;34041;51.812;4.622;2023-07-13T19:18:22;5.57;;;1.58;;
48241;SDS011;34041;51.812;4.622;2023-07-13T19:21:26;7.05;;;1.65;;
48241;SDS011;34041;51.812;4.622;2023-07-13T19:24:28;5.60;;;1.33;;
48241;SDS011;34041;51.812;4.622;2023-07-13T19:27:31;5.00;;;1.50;;
48241;SDS011;34041;51.812;4.622;2023-07-13T19:30:31;6.95;;;1.30;;
48241;SDS011;34041;51.812;4.622;2023-07-13T19:33:31;3.85;;;1.63;;
48241;SDS011;34041;51.812;4.622;2023-07-13T19:36:32;4.40;;;1.63;;
48241;SDS011;34041;51.812;4.622;2023-07-13T19:39:36;6.28;;;1.35;;
48241;SDS011;34041;51.812;4.622;2023-07-13T19:42:38;5.22;;;1.63;;
48241;SDS011;34041;51.812;4.622;2023-07-13T19:45:39;5.20;;;1.50;;
48241;SDS011;34041;51.812;4.622;2023-07-13T19:48:39;4.77;;;1.37;;
48241;SDS011;34041;51.812;4.622;2023-07-13T19:51:39;8.07;;;2.93;;
48241;SDS011;34041;51.812;4.622;2023-07-13T19:54:41;5.75;;;2.58;;
48241;SDS011;34041;51.812;4.622;2023-07-13T19:57:44;9.18;;;1.80;;
48241;SDS011;34041;51.812;4.622;2023-07-13T20:00:44;5.03;;;1.75;;
48241;SDS011;34041;51.812;4.622;2023-07-13T20:03:45;6.90;;;2.20;;
48241;SDS011;34041;51.812;4.622;2023-07-13T20:06:45;7.10;;;1.45;;
48241;SDS011;34041;51.812;4.622;2023-07-13T20:09:46;3.03;;;1.45;;
48241;SDS011;34041;51.812;4.622;2023-07-13T20:12:50;3.80;;;2.03;;
48241;SDS011;34041;51.812;4.622;2023-07-13T20:15:52;5.30;;;1.58;;
48241;SDS011;34041;51.812;4.622;2023-07-13T20:18:52;6.10;;;2.40;;
48241;SDS011;34041;51.812;4.622;2023-07-13T20:21:52;4.80;;;1.63;;
48241;SDS011;34041;51.812;4.622;2023-07-13T20:24:52;3.60;;;1.43;;
48241;SDS011;34041;51.812;4.622;2023-07-13T20:27:53;7.87;;;1.73;;
48241;SDS011;34041;51.812;4.622;2023-07-13T20:30:54;3.22;;;1.20;;
48241;SDS011;34041;51.812;4.622;2023-07-13T20:33:55;4.25;;;1.65;;
48241;SDS011;34041;51.812;4.622;2023-07-13T20:36:55;5.60;;;1.60;;
48241;SDS011;34041;51.812;4.622;2023-07-13T20:39:55;4.55;;;1.88;;
48241;SDS011;34041;51.812;4.622;2023-07-13T20:42:56;5.93;;;1.63;;
48241;SDS011;34041;51.812;4.622;2023-07-13T20:45:58;5.60;;;2.25;;
48241;SDS011;34041;51.812;4.622;2023-07-13T20:48:58;3.90;;;1.65;;
48241;SDS011;34041;51.812;4.622;2023-07-13T20:51:59;4.72;;;1.60;;
48241;SDS011;34041;51.812;4.622;2023-07-13T20:54:59;3.97;;;1.77;;
48241;SDS011;34041;51.812;4.622;2023-07-13T20:58:01;5.05;;;1.77;;
48241;SDS011;34041;51.812;4.622;2023-07-13T21:01:03;3.67;;;1.70;;
48241;SDS011;34041;51.812;4.622;2023-07-13T21:04:05;4.47;;;1.52;;
48241;SDS011;34041;51.812;4.622;2023-07-13T21:07:07;3.60;;;1.27;;
48241;SDS011;34041;51.812;4.622;2023-07-13T21:10:16;4.40;;;1.58;;
48241;SDS011;34041;51.812;4.622;2023-07-13T21:13:17;8.38;;;2.17;;
48241;SDS011;34041;51.812;4.622;2023-07-13T21:16:21;4.43;;;1.75;;
48241;SDS011;34041;51.812;4.622;2023-07-13T21:19:21;4.53;;;2.08;;
48241;SDS011;34041;51.812;4.622;2023-07-13T21:22:22;5.70;;;1.50;;
48241;SDS011;34041;51.812;4.622;2023-07-13T21:25:23;6.85;;;1.85;;
48241;SDS011;34041;51.812;4.622;2023-07-13T21:28:24;4.03;;;2.58;;
48241;SDS011;34041;51.812;4.622;2023-07-13T21:34:25;7.20;;;2.08;;
48241;SDS011;34041;51.812;4.622;2023-07-13T21:37:25;7.78;;;2.30;;
48241;SDS011;34041;51.812;4.622;2023-07-13T21:40:26;4.03;;;1.90;;
48241;SDS011;34041;51.812;4.622;2023-07-13T21:43:27;7.60;;;1.98;;
48241;SDS011;34041;51.812;4.622;2023-07-13T21:46:28;8.25;;;2.25;;
48241;SDS011;34041;51.812;4.622;2023-07-13T21:49:29;6.43;;;2.20;;
48241;SDS011;34041;51.812;4.622;2023-07-13T21:52:29;3.72;;;1.88;;
48241;SDS011;34041;51.812;4.622;2023-07-13T21:55:29;6.30;;;2.20;;
48241;SDS011;34041;51.812;4.622;2023-07-13T21:58:30;7.97;;;2.07;;
48241;SDS011;34041;51.812;4.622;2023-07-13T22:01:31;5.15;;;1.65;;
48241;SDS011;34041;51.812;4.622;2023-07-13T22:04:34;6.05;;;1.50;;
48241;SDS011;34041;51.812;4.622;2023-07-13T22:07:35;5.03;;;1.63;;
48241;SDS011;34041;51.812;4.622;2023-07-13T22:10:35;12.18;;;2.35;;
48241;SDS011;34041;51.812;4.622;2023-07-13T22:13:36;7.87;;;2.20;;
48241;SDS011;34041;51.812;4.622;2023-07-13T22:16:37;9.30;;;3.15;;
48241;SDS011;34041;51.812;4.622;2023-07-13T22:19:38;8.13;;;2.50;;
48241;SDS011;34041;51.812;4.622;2023-07-13T22:22:38;8.80;;;2.20;;
48241;SDS011;34041;51.812;4.622;2023-07-13T22:25:38;6.50;;;2.28;;
48241;SDS011;34041;51.812;4.622;2023-07-13T22:28:38;6.85;;;2.47;;
48241;SDS011;34041;51.812;4.622;2023-07-13T22:31:39;8.30;;;3.30;;
48241;SDS011;34041;51.812;4.622;2023-07-13T22:34:39;6.50;;;2.30;;
48241;SDS011;34041;51.812;4.622;2023-07-13T22:37:40;8.03;;;2.80;;
48241;SDS011;34041;51.812;4.622;2023-07-13T22:40:40;6.30;;;2.40;;
48241;SDS011;34041;51.812;4.622;2023-07-13T22:43:41;6.13;;;2.00;;
48241;SDS011;34041;51.812;4.622;2023-07-13T22:46:41;6.05;;;1.90;;
48241;SDS011;34041;51.812;4.622;2023-07-13T22:49:41;7.60;;;2.43;;
48241;SDS011;34041;51.812;4.622;2023-07-13T22:52:42;5.97;;;2.80;;
48241;SDS011;34041;51.812;4.622;2023-07-13T22:55:42;7.03;;;2.88;;
48241;SDS011;34041;51.812;4.622;2023-07-13T22:58:42;6.40;;;2.73;;
48241;SDS011;34041;51.812;4.622;2023-07-13T23:01:43;8.05;;;2.78;;
48241;SDS011;34041;51.812;4.622;2023-07-13T23:04:43;9.27;;;2.90;;
48241;SDS011;34041;51.812;4.622;2023-07-13T23:07:44;6.13;;;2.85;;
48241;SDS011;34041;51.812;4.622;2023-07-13T23:10:45;7.80;;;2.88;;
48241;SDS011;34041;51.812;4.622;2023-07-13T23:13:52;7.40;;;2.40;;
48241;SDS011;34041;51.812;4.622;2023-07-13T23:16:53;6.10;;;3.20;;
48241;SDS011;34041;51.812;4.622;2023-07-13T23:19:54;9.52;;;3.42;;
48241;SDS011;34041;51.812;4.622;2023-07-13T23:22:54;7.13;;;2.43;;
48241;SDS011;34041;51.812;4.622;2023-07-13T23:25:57;8.85;;;2.80;;
48241;SDS011;34041;51.812;4.622;2023-07-13T23:28:58;10.45;;;3.00;;
48241;SDS011;34041;51.812;4.622;2023-07-13T23:31:58;6.15;;;2.92;;
48241;SDS011;34041;51.812;4.622;2023-07-13T23:34:59;6.93;;;3.17;;
48241;SDS011;34041;51.812;4.622;2023-07-13T23:37:59;5.67;;;2.40;;
48241;SDS011;34041;51.812;4.622;2023-07-13T23:40:59;5.47;;;2.43;;
48241;SDS011;34041;51.812;4.622;2023-07-13T23:43:59;7.45;;;2.33;;
48241;SDS011;34041;51.812;4.622;2023-07-13T23:47:00;7.83;;;3.57;;
48241;SDS011;34041;51.812;4.622;2023-07-13T23:50:00;10.17;;;3.63;;
48241;SDS011;34041;51.812;4.622;2023-07-13T23:53:01;9.48;;;2.80;;
48241;SDS011;34041;51.812;4.622;2023-07-13T23:56:08;8.18;;;3.80;;
48241;SDS011;34041;51.812;4.622;2023-07-13T23:59:09;7.50;;;3.10;;
